sensor_id;sensor_type;location;lat;lon;timestamp;temperature;humidity
13035;DHT22;6584;48.022;11.810;2023-01-30T00:02:06;-2.50;99.90
13035;DHT22;6584;48.022;11.810;2023-01-30T00:04:31;-2.60;99.90
13035;DHT22;6584;48.022;11.810;2023-01-30T00:06:57;-2.50;99.90
13035;DHT22;6584;48.022;11.810;2023-01-30T00:09:22;-2.50;99.90
13035;DHT22;6584;48.022;11.810;2023-01-30T00:11:48;-2.50;99.90
13035;DHT22;6584;48.022;11.810;2023-01-30T00:14:13;-2.60;99.90
13035;DHT22;6584;48.022;11.810;2023-01-30T00:16:39;-2.60;99.90
13035;DHT22;6584;48.022;11.810;2023-01-30T00:19:06;-2.70;99.90
13035;DHT22;6584;48.022;11.810;2023-01-30T00:21:31;-2.70;99.90
13035;DHT22;6584;48.022;11.810;2023-01-30T00:23:57;-2.70;99.90
13035;DHT22;6584;48.022;11.810;2023-01-30T00:26:25;-2.70;99.90
13035;DHT22;6584;48.022;11.810;2023-01-30T00:28:50;-2.70;99.90
13035;DHT22;6584;48.022;11.810;2023-01-30T00:31:16;-2.70;99.90
13035;DHT22;6584;48.022;11.810;2023-01-30T00:33:41;-2.60;99.90
13035;DHT22;6584;48.022;11.810;2023-01-30T00:36:08;-2.60;99.90
13035;DHT22;6584;48.022;11.810;2023-01-30T00:38:34;-2.70;99.90
13035;DHT22;6584;48.022;11.810;2023-01-30T00:41:00;-2.70;99.90
13035;DHT22;6584;48.022;11.810;2023-01-30T00:43:25;-2.60;99.90
13035;DHT22;6584;48.022;11.810;2023-01-30T00:46:14;-2.60;99.90
13035;DHT22;6584;48.022;11.810;2023-01-30T00:48:59;-2.70;99.90
13035;DHT22;6584;48.022;11.810;2023-01-30T00:51:25;-2.60;99.90
13035;DHT22;6584;48.022;11.810;2023-01-30T00:53:50;-2.60;99.90
13035;DHT22;6584;48.022;11.810;2023-01-30T00:56:16;-2.70;99.90
13035;DHT22;6584;48.022;11.810;2023-01-30T00:58:41;-2.70;99.90
13035;DHT22;6584;48.022;11.810;2023-01-30T01:01:07;-2.70;99.90
13035;DHT22;6584;48.022;11.810;2023-01-30T01:03:32;-2.70;99.90
13035;DHT22;6584;48.022;11.810;2023-01-30T01:05:58;-2.70;99.90
13035;DHT22;6584;48.022;11.810;2023-01-30T01:08:23;-2.60;99.90
13035;DHT22;6584;48.022;11.810;2023-01-30T01:10:49;-2.70;99.90
13035;DHT22;6584;48.022;11.810;2023-01-30T01:13:14;-2.70;99.90
13035;DHT22;6584;48.022;11.810;2023-01-30T01:15:40;-2.60;99.90
13035;DHT22;6584;48.022;11.810;2023-01-30T01:18:06;-2.70;99.90
13035;DHT22;6584;48.022;11.810;2023-01-30T01:20:31;-2.70;99.90
13035;DHT22;6584;48.022;11.810;2023-01-30T01:22:57;-2.70;99.90
13035;DHT22;6584;48.022;11.810;2023-01-30T01:25:23;-2.60;99.90
13035;DHT22;6584;48.022;11.810;2023-01-30T01:27:49;-2.70;99.90
13035;DHT22;6584;48.022;11.810;2023-01-30T01:30:16;-2.70;99.90
13035;DHT22;6584;48.022;11.810;2023-01-30T01:32:41;-2.80;99.90
13035;DHT22;6584;48.022;11.810;2023-01-30T01:35:07;-2.80;99.90
13035;DHT22;6584;48.022;11.810;2023-01-30T01:37:33;-2.80;99.90
13035;DHT22;6584;48.022;11.810;2023-01-30T01:39:59;-2.80;99.90
13035;DHT22;6584;48.022;11.810;2023-01-30T01:42:43;-2.70;99.90
13035;DHT22;6584;48.022;11.810;2023-01-30T01:47:40;-2.80;99.90
13035;DHT22;6584;48.022;11.810;2023-01-30T01:50:20;-2.80;99.90
13035;DHT22;6584;48.022;11.810;2023-01-30T01:52:48;-2.90;99.90
13035;DHT22;6584;48.022;11.810;2023-01-30T01:55:16;-2.90;99.90
13035;DHT22;6584;48.022;11.810;2023-01-30T01:57:46;-2.90;99.90
13035;DHT22;6584;48.022;11.810;2023-01-30T02:00:17;-2.90;99.90
13035;DHT22;6584;48.022;11.810;2023-01-30T02:02:48;-2.90;99.90
13035;DHT22;6584;48.022;11.810;2023-01-30T02:05:15;-3.00;99.90
13035;DHT22;6584;48.022;11.810;2023-01-30T02:11:21;-3.10;99.90
13035;DHT22;6584;48.022;11.810;2023-01-30T02:13:19;-3.10;99.90
13035;DHT22;6584;48.022;11.810;2023-01-30T02:15:45;-3.10;99.90
13035;DHT22;6584;48.022;11.810;2023-01-30T02:18:12;-3.10;99.90
13035;DHT22;6584;48.022;11.810;2023-01-30T02:23:42;-3.10;99.90
13035;DHT22;6584;48.022;11.810;2023-01-30T02:31:53;-3.10;99.90
13035;DHT22;6584;48.022;11.810;2023-01-30T02:42:19;-3.40;99.90
13035;DHT22;6584;48.022;11.810;2023-01-30T02:45:09;-3.50;99.90
13035;DHT22;6584;48.022;11.810;2023-01-30T02:50:23;-3.50;99.90
13035;DHT22;6584;48.022;11.810;2023-01-30T02:52:50;-3.60;99.90
13035;DHT22;6584;48.022;11.810;2023-01-30T02:55:27;-3.60;99.90
13035;DHT22;6584;48.022;11.810;2023-01-30T02:57:53;-3.60;99.90
13035;DHT22;6584;48.022;11.810;2023-01-30T03:09:06;-3.50;99.90
13035;DHT22;6584;48.022;11.810;2023-01-30T03:11:47;-3.60;99.90
13035;DHT22;6584;48.022;11.810;2023-01-30T03:14:26;-3.60;99.90
13035;DHT22;6584;48.022;11.810;2023-01-30T03:16:55;-3.60;99.90
13035;DHT22;6584;48.022;11.810;2023-01-30T03:19:21;-3.60;99.90
13035;DHT22;6584;48.022;11.810;2023-01-30T03:21:47;-3.60;99.90
13035;DHT22;6584;48.022;11.810;2023-01-30T03:24:13;-3.60;99.90
13035;DHT22;6584;48.022;11.810;2023-01-30T03:26:53;-3.60;99.90
13035;DHT22;6584;48.022;11.810;2023-01-30T03:29:19;-3.60;99.90
13035;DHT22;6584;48.022;11.810;2023-01-30T03:31:45;-3.60;99.90
13035;DHT22;6584;48.022;11.810;2023-01-30T03:34:10;-3.70;99.90
13035;DHT22;6584;48.022;11.810;2023-01-30T03:36:36;-3.70;99.90
13035;DHT22;6584;48.022;11.810;2023-01-30T03:39:02;-3.80;99.90
13035;DHT22;6584;48.022;11.810;2023-01-30T03:41:28;-3.80;99.90
13035;DHT22;6584;48.022;11.810;2023-01-30T03:43:53;-3.70;99.90
13035;DHT22;6584;48.022;11.810;2023-01-30T03:46:19;-3.70;99.90
13035;DHT22;6584;48.022;11.810;2023-01-30T03:48:44;-3.80;99.90
13035;DHT22;6584;48.022;11.810;2023-01-30T03:51:10;-3.70;99.90
13035;DHT22;6584;48.022;11.810;2023-01-30T03:53:35;-3.60;99.90
13035;DHT22;6584;48.022;11.810;2023-01-30T03:56:01;-3.60;99.90
13035;DHT22;6584;48.022;11.810;2023-01-30T03:58:26;-3.60;99.90
13035;DHT22;6584;48.022;11.810;2023-01-30T04:00:55;-3.60;99.90
13035;DHT22;6584;48.022;11.810;2023-01-30T04:03:20;-3.60;99.90
13035;DHT22;6584;48.022;11.810;2023-01-30T04:05:46;-3.50;99.90
13035;DHT22;6584;48.022;11.810;2023-01-30T04:08:11;-3.50;99.90
13035;DHT22;6584;48.022;11.810;2023-01-30T04:10:37;-3.50;99.90
13035;DHT22;6584;48.022;11.810;2023-01-30T04:13:02;-3.50;99.90
13035;DHT22;6584;48.022;11.810;2023-01-30T04:15:28;-3.40;99.90
13035;DHT22;6584;48.022;11.810;2023-01-30T04:17:53;-3.30;99.90
13035;DHT22;6584;48.022;11.810;2023-01-30T04:20:19;-3.30;99.90
13035;DHT22;6584;48.022;11.810;2023-01-30T04:22:45;-3.20;99.90
13035;DHT22;6584;48.022;11.810;2023-01-30T04:25:10;-3.20;99.90
13035;DHT22;6584;48.022;11.810;2023-01-30T04:27:36;-3.20;99.90
13035;DHT22;6584;48.022;11.810;2023-01-30T04:30:02;-3.10;99.90
13035;DHT22;6584;48.022;11.810;2023-01-30T04:32:28;-3.10;99.90
13035;DHT22;6584;48.022;11.810;2023-01-30T04:34:53;-3.10;99.90
13035;DHT22;6584;48.022;11.810;2023-01-30T04:37:19;-3.20;99.90
13035;DHT22;6584;48.022;11.810;2023-01-30T04:39:44;-3.20;99.90
13035;DHT22;6584;48.022;11.810;2023-01-30T04:42:10;-3.20;99.90
13035;DHT22;6584;48.022;11.810;2023-01-30T04:44:36;-3.20;99.90
13035;DHT22;6584;48.022;11.810;2023-01-30T04:47:01;-3.20;99.90
13035;DHT22;6584;48.022;11.810;2023-01-30T04:49:27;-3.20;99.90
13035;DHT22;6584;48.022;11.810;2023-01-30T04:51:52;-3.10;99.90
13035;DHT22;6584;48.022;11.810;2023-01-30T04:54:18;-3.20;99.90
13035;DHT22;6584;48.022;11.810;2023-01-30T04:56:43;-3.10;99.90
13035;DHT22;6584;48.022;11.810;2023-01-30T04:59:09;-3.10;99.90
13035;DHT22;6584;48.022;11.810;2023-01-30T05:01:37;-3.10;99.90
13035;DHT22;6584;48.022;11.810;2023-01-30T05:04:04;-3.10;99.90
13035;DHT22;6584;48.022;11.810;2023-01-30T05:06:31;-3.00;99.90
13035;DHT22;6584;48.022;11.810;2023-01-30T05:08:56;-3.00;99.90
13035;DHT22;6584;48.022;11.810;2023-01-30T05:11:24;-3.00;99.90
13035;DHT22;6584;48.022;11.810;2023-01-30T05:13:50;-2.90;99.90
13035;DHT22;6584;48.022;11.810;2023-01-30T05:16:17;-2.90;99.90
13035;DHT22;6584;48.022;11.810;2023-01-30T05:18:43;-2.90;99.90
13035;DHT22;6584;48.022;11.810;2023-01-30T05:21:13;-3.00;99.90
13035;DHT22;6584;48.022;11.810;2023-01-30T05:23:40;-2.90;99.90
13035;DHT22;6584;48.022;11.810;2023-01-30T05:26:05;-2.90;99.90
13035;DHT22;6584;48.022;11.810;2023-01-30T05:28:33;-2.90;99.90
13035;DHT22;6584;48.022;11.810;2023-01-30T05:31:07;-2.90;99.90
13035;DHT22;6584;48.022;11.810;2023-01-30T05:33:33;-2.90;99.90
13035;DHT22;6584;48.022;11.810;2023-01-30T05:35:58;-3.00;99.90
13035;DHT22;6584;48.022;11.810;2023-01-30T05:38:25;-2.90;99.90
13035;DHT22;6584;48.022;11.810;2023-01-30T05:41:02;-2.90;99.90
13035;DHT22;6584;48.022;11.810;2023-01-30T05:43:28;-2.90;99.90
13035;DHT22;6584;48.022;11.810;2023-01-30T05:45:55;-2.90;99.90
13035;DHT22;6584;48.022;11.810;2023-01-30T05:48:21;-2.80;99.90
13035;DHT22;6584;48.022;11.810;2023-01-30T05:50:52;-2.90;99.90
13035;DHT22;6584;48.022;11.810;2023-01-30T05:53:19;-2.90;99.90
13035;DHT22;6584;48.022;11.810;2023-01-30T05:55:46;-2.80;99.90
13035;DHT22;6584;48.022;11.810;2023-01-30T05:58:11;-2.80;99.90
13035;DHT22;6584;48.022;11.810;2023-01-30T06:00:37;-2.90;99.90
13035;DHT22;6584;48.022;11.810;2023-01-30T06:03:03;-2.80;99.90
13035;DHT22;6584;48.022;11.810;2023-01-30T06:05:29;-2.80;99.90
13035;DHT22;6584;48.022;11.810;2023-01-30T06:07:54;-2.80;99.90
13035;DHT22;6584;48.022;11.810;2023-01-30T06:10:20;-2.80;99.90
13035;DHT22;6584;48.022;11.810;2023-01-30T06:12:45;-2.80;99.90
13035;DHT22;6584;48.022;11.810;2023-01-30T06:15:11;-2.90;99.90
13035;DHT22;6584;48.022;11.810;2023-01-30T06:17:41;-2.80;99.90
13035;DHT22;6584;48.022;11.810;2023-01-30T06:20:08;-2.80;99.90
13035;DHT22;6584;48.022;11.810;2023-01-30T06:22:33;-2.80;99.90
13035;DHT22;6584;48.022;11.810;2023-01-30T06:24:59;-2.80;99.90
13035;DHT22;6584;48.022;11.810;2023-01-30T06:27:24;-2.80;99.90
13035;DHT22;6584;48.022;11.810;2023-01-30T06:29:50;-2.70;99.90
13035;DHT22;6584;48.022;11.810;2023-01-30T06:32:15;-2.80;99.90
13035;DHT22;6584;48.022;11.810;2023-01-30T06:34:41;-2.80;99.90
13035;DHT22;6584;48.022;11.810;2023-01-30T06:37:07;-2.80;99.90
13035;DHT22;6584;48.022;11.810;2023-01-30T06:39:33;-2.80;99.90
13035;DHT22;6584;48.022;11.810;2023-01-30T06:41:58;-2.80;99.90
13035;DHT22;6584;48.022;11.810;2023-01-30T06:44:24;-2.70;99.90
13035;DHT22;6584;48.022;11.810;2023-01-30T06:46:49;-2.60;99.90
13035;DHT22;6584;48.022;11.810;2023-01-30T06:49:15;-2.50;99.90
13035;DHT22;6584;48.022;11.810;2023-01-30T06:51:40;-2.50;99.90
13035;DHT22;6584;48.022;11.810;2023-01-30T06:54:06;-2.40;99.90
13035;DHT22;6584;48.022;11.810;2023-01-30T06:56:31;-2.40;99.90
13035;DHT22;6584;48.022;11.810;2023-01-30T06:58:57;-2.40;99.90
13035;DHT22;6584;48.022;11.810;2023-01-30T07:01:22;-2.40;99.90
13035;DHT22;6584;48.022;11.810;2023-01-30T07:03:48;-2.50;99.90
13035;DHT22;6584;48.022;11.810;2023-01-30T07:06:13;-2.40;99.90
13035;DHT22;6584;48.022;11.810;2023-01-30T07:08:39;-2.40;99.90
13035;DHT22;6584;48.022;11.810;2023-01-30T07:11:05;-2.40;99.90
13035;DHT22;6584;48.022;11.810;2023-01-30T07:13:31;-2.40;99.90
13035;DHT22;6584;48.022;11.810;2023-01-30T07:15:56;-2.50;99.90
13035;DHT22;6584;48.022;11.810;2023-01-30T07:18:22;-2.40;99.90
13035;DHT22;6584;48.022;11.810;2023-01-30T07:20:48;-2.40;99.90
13035;DHT22;6584;48.022;11.810;2023-01-30T07:23:14;-2.20;99.90
13035;DHT22;6584;48.022;11.810;2023-01-30T07:25:40;-2.20;99.90
13035;DHT22;6584;48.022;11.810;2023-01-30T07:28:05;-2.30;99.90
13035;DHT22;6584;48.022;11.810;2023-01-30T07:30:33;-2.20;99.90
13035;DHT22;6584;48.022;11.810;2023-01-30T07:33:01;-2.20;99.90
13035;DHT22;6584;48.022;11.810;2023-01-30T07:35:29;-2.20;99.90
13035;DHT22;6584;48.022;11.810;2023-01-30T07:37:55;-2.20;99.90
13035;DHT22;6584;48.022;11.810;2023-01-30T07:40:21;-2.20;99.90
13035;DHT22;6584;48.022;11.810;2023-01-30T07:43:13;-2.10;99.90
13035;DHT22;6584;48.022;11.810;2023-01-30T07:45:43;-2.10;99.90
13035;DHT22;6584;48.022;11.810;2023-01-30T07:48:11;-2.00;99.90
13035;DHT22;6584;48.022;11.810;2023-01-30T07:50:36;-2.00;99.90
13035;DHT22;6584;48.022;11.810;2023-01-30T07:53:04;-2.00;99.90
13035;DHT22;6584;48.022;11.810;2023-01-30T07:55:30;-1.90;99.90
13035;DHT22;6584;48.022;11.810;2023-01-30T07:57:55;-1.80;99.90
13035;DHT22;6584;48.022;11.810;2023-01-30T08:00:21;-1.80;99.90
13035;DHT22;6584;48.022;11.810;2023-01-30T08:02:46;-1.70;99.90
13035;DHT22;6584;48.022;11.810;2023-01-30T08:05:12;-1.60;99.90
13035;DHT22;6584;48.022;11.810;2023-01-30T08:07:37;-1.60;99.90
13035;DHT22;6584;48.022;11.810;2023-01-30T08:10:04;-1.50;99.90
13035;DHT22;6584;48.022;11.810;2023-01-30T08:12:30;-1.50;99.90
13035;DHT22;6584;48.022;11.810;2023-01-30T08:14:55;-1.50;99.90
13035;DHT22;6584;48.022;11.810;2023-01-30T08:17:21;-1.50;99.90
13035;DHT22;6584;48.022;11.810;2023-01-30T08:19:47;-1.50;99.90
13035;DHT22;6584;48.022;11.810;2023-01-30T08:22:13;-1.40;99.90
13035;DHT22;6584;48.022;11.810;2023-01-30T08:24:38;-1.40;99.90
13035;DHT22;6584;48.022;11.810;2023-01-30T08:27:04;-1.40;99.90
13035;DHT22;6584;48.022;11.810;2023-01-30T08:29:29;-1.40;99.90
13035;DHT22;6584;48.022;11.810;2023-01-30T08:31:59;-1.40;99.90
13035;DHT22;6584;48.022;11.810;2023-01-30T08:34:25;-1.30;99.90
13035;DHT22;6584;48.022;11.810;2023-01-30T08:36:51;-1.20;99.90
13035;DHT22;6584;48.022;11.810;2023-01-30T08:39:16;-1.20;99.90
13035;DHT22;6584;48.022;11.810;2023-01-30T08:41:42;-1.10;99.90
13035;DHT22;6584;48.022;11.810;2023-01-30T08:44:09;-1.10;99.90
13035;DHT22;6584;48.022;11.810;2023-01-30T08:46:35;-1.10;99.90
13035;DHT22;6584;48.022;11.810;2023-01-30T08:49:01;-1.00;99.90
13035;DHT22;6584;48.022;11.810;2023-01-30T08:51:26;-0.90;99.90
13035;DHT22;6584;48.022;11.810;2023-01-30T08:53:52;-0.90;99.90
13035;DHT22;6584;48.022;11.810;2023-01-30T08:56:17;-0.90;99.90
13035;DHT22;6584;48.022;11.810;2023-01-30T08:58:43;-0.80;99.90
13035;DHT22;6584;48.022;11.810;2023-01-30T09:01:11;-0.80;99.90
13035;DHT22;6584;48.022;11.810;2023-01-30T09:03:36;-0.70;99.90
13035;DHT22;6584;48.022;11.810;2023-01-30T09:06:02;-0.70;99.90
13035;DHT22;6584;48.022;11.810;2023-01-30T09:08:27;-0.70;99.90
13035;DHT22;6584;48.022;11.810;2023-01-30T09:10:57;-0.70;99.90
13035;DHT22;6584;48.022;11.810;2023-01-30T09:13:24;-0.60;99.90
13035;DHT22;6584;48.022;11.810;2023-01-30T09:15:49;-0.50;99.90
13035;DHT22;6584;48.022;11.810;2023-01-30T09:18:15;-0.30;99.90
13035;DHT22;6584;48.022;11.810;2023-01-30T09:20:40;-0.30;99.90
13035;DHT22;6584;48.022;11.810;2023-01-30T09:23:06;-0.30;99.90
13035;DHT22;6584;48.022;11.810;2023-01-30T09:25:31;-0.30;99.90
13035;DHT22;6584;48.022;11.810;2023-01-30T09:27:57;-0.20;99.90
13035;DHT22;6584;48.022;11.810;2023-01-30T09:30:22;-0.20;99.90
13035;DHT22;6584;48.022;11.810;2023-01-30T09:32:48;-0.20;99.90
13035;DHT22;6584;48.022;11.810;2023-01-30T09:35:14;-0.30;99.90
13035;DHT22;6584;48.022;11.810;2023-01-30T09:37:49;-0.30;99.90
13035;DHT22;6584;48.022;11.810;2023-01-30T09:40:17;-0.20;99.90
13035;DHT22;6584;48.022;11.810;2023-01-30T09:45:49;0.00;99.90
13035;DHT22;6584;48.022;11.810;2023-01-30T09:56:10;0.30;99.90
13035;DHT22;6584;48.022;11.810;2023-01-30T09:58:57;0.20;99.90
13035;DHT22;6584;48.022;11.810;2023-01-30T10:01:47;0.20;99.90
13035;DHT22;6584;48.022;11.810;2023-01-30T10:04:26;0.40;99.90
13035;DHT22;6584;48.022;11.810;2023-01-30T10:15:56;0.80;99.90
13035;DHT22;6584;48.022;11.810;2023-01-30T10:18:35;0.90;99.90
13035;DHT22;6584;48.022;11.810;2023-01-30T10:26:27;1.10;99.90
13035;DHT22;6584;48.022;11.810;2023-01-30T10:29:05;1.20;99.90
13035;DHT22;6584;48.022;11.810;2023-01-30T10:31:43;1.20;99.90
13035;DHT22;6584;48.022;11.810;2023-01-30T10:34:31;1.30;99.90
13035;DHT22;6584;48.022;11.810;2023-01-30T10:40:23;1.30;99.90
13035;DHT22;6584;48.022;11.810;2023-01-30T10:44:13;1.10;99.90
13035;DHT22;6584;48.022;11.810;2023-01-30T10:49:10;1.10;99.90
13035;DHT22;6584;48.022;11.810;2023-01-30T10:51:46;1.10;99.90
13035;DHT22;6584;48.022;11.810;2023-01-30T10:54:31;1.20;99.90
13035;DHT22;6584;48.022;11.810;2023-01-30T10:57:17;1.20;99.90
13035;DHT22;6584;48.022;11.810;2023-01-30T11:03:25;1.50;99.90
13035;DHT22;6584;48.022;11.810;2023-01-30T11:06:00;1.60;99.90
13035;DHT22;6584;48.022;11.810;2023-01-30T11:08:31;1.70;99.90
13035;DHT22;6584;48.022;11.810;2023-01-30T11:10:58;1.70;99.90
13035;DHT22;6584;48.022;11.810;2023-01-30T11:13:30;1.90;99.90
13035;DHT22;6584;48.022;11.810;2023-01-30T11:16:04;2.00;99.90
13035;DHT22;6584;48.022;11.810;2023-01-30T11:18:30;2.30;99.90
13035;DHT22;6584;48.022;11.810;2023-01-30T11:21:03;2.50;99.90
13035;DHT22;6584;48.022;11.810;2023-01-30T11:23:40;2.60;99.90
13035;DHT22;6584;48.022;11.810;2023-01-30T11:26:11;2.70;99.90
13035;DHT22;6584;48.022;11.810;2023-01-30T11:28:42;2.70;99.90
13035;DHT22;6584;48.022;11.810;2023-01-30T11:31:26;2.70;99.90
13035;DHT22;6584;48.022;11.810;2023-01-30T11:34:00;2.80;99.90
13035;DHT22;6584;48.022;11.810;2023-01-30T11:36:32;2.90;99.90
13035;DHT22;6584;48.022;11.810;2023-01-30T11:41:23;3.20;99.90
13035;DHT22;6584;48.022;11.810;2023-01-30T11:43:49;3.30;99.90
13035;DHT22;6584;48.022;11.810;2023-01-30T11:46:19;3.40;99.90
13035;DHT22;6584;48.022;11.810;2023-01-30T11:48:58;3.40;99.90
13035;DHT22;6584;48.022;11.810;2023-01-30T11:51:25;3.30;99.90
13035;DHT22;6584;48.022;11.810;2023-01-30T11:53:56;3.20;99.90
13035;DHT22;6584;48.022;11.810;2023-01-30T11:59:02;3.20;99.90
13035;DHT22;6584;48.022;11.810;2023-01-30T12:01:31;3.10;99.90
13035;DHT22;6584;48.022;11.810;2023-01-30T12:03:58;3.10;99.90
13035;DHT22;6584;48.022;11.810;2023-01-30T12:06:29;2.90;99.90
13035;DHT22;6584;48.022;11.810;2023-01-30T12:08:56;2.90;99.90
13035;DHT22;6584;48.022;11.810;2023-01-30T12:16:49;3.10;99.90
13035;DHT22;6584;48.022;11.810;2023-01-30T12:19:34;3.10;99.90
13035;DHT22;6584;48.022;11.810;2023-01-30T12:24:58;3.10;99.90
13035;DHT22;6584;48.022;11.810;2023-01-30T12:32:49;2.90;99.90
13035;DHT22;6584;48.022;11.810;2023-01-30T12:35:17;2.90;99.90
13035;DHT22;6584;48.022;11.810;2023-01-30T12:41:41;2.80;99.90
13035;DHT22;6584;48.022;11.810;2023-01-30T12:44:03;2.80;99.90
13035;DHT22;6584;48.022;11.810;2023-01-30T12:46:55;2.80;99.90
13035;DHT22;6584;48.022;11.810;2023-01-30T12:49:51;2.70;99.90
13035;DHT22;6584;48.022;11.810;2023-01-30T12:55:35;2.60;99.90
13035;DHT22;6584;48.022;11.810;2023-01-30T12:58:23;2.60;99.90
13035;DHT22;6584;48.022;11.810;2023-01-30T13:01:27;2.60;99.90
13035;DHT22;6584;48.022;11.810;2023-01-30T13:04:36;2.60;99.90
13035;DHT22;6584;48.022;11.810;2023-01-30T13:13:13;2.50;99.90
13035;DHT22;6584;48.022;11.810;2023-01-30T13:18:35;2.40;99.90
13035;DHT22;6584;48.022;11.810;2023-01-30T13:21:43;2.40;99.90
13035;DHT22;6584;48.022;11.810;2023-01-30T13:24:21;2.40;99.90
13035;DHT22;6584;48.022;11.810;2023-01-30T13:26:50;2.40;99.90
13035;DHT22;6584;48.022;11.810;2023-01-30T13:29:32;2.40;99.90
13035;DHT22;6584;48.022;11.810;2023-01-30T13:32:02;2.50;99.90
13035;DHT22;6584;48.022;11.810;2023-01-30T13:34:38;2.50;99.90
13035;DHT22;6584;48.022;11.810;2023-01-30T13:37:39;2.50;99.90
13035;DHT22;6584;48.022;11.810;2023-01-30T13:40:37;2.50;99.90
13035;DHT22;6584;48.022;11.810;2023-01-30T13:43:13;2.50;99.90
13035;DHT22;6584;48.022;11.810;2023-01-30T13:45:43;2.60;99.90
13035;DHT22;6584;48.022;11.810;2023-01-30T14:02:21;2.60;99.90
13035;DHT22;6584;48.022;11.810;2023-01-30T14:04:54;2.60;99.90
13035;DHT22;6584;48.022;11.810;2023-01-30T14:07:38;2.70;99.90
13035;DHT22;6584;48.022;11.810;2023-01-30T14:10:13;2.70;99.90
13035;DHT22;6584;48.022;11.810;2023-01-30T14:12:51;2.70;99.90
13035;DHT22;6584;48.022;11.810;2023-01-30T14:15:20;2.70;99.90
13035;DHT22;6584;48.022;11.810;2023-01-30T14:20:25;2.60;99.90
13035;DHT22;6584;48.022;11.810;2023-01-30T14:22:54;2.60;99.90
13035;DHT22;6584;48.022;11.810;2023-01-30T14:27:55;2.60;99.90
13035;DHT22;6584;48.022;11.810;2023-01-30T14:30:49;2.70;99.90
13035;DHT22;6584;48.022;11.810;2023-01-30T14:35:45;2.60;99.90
13035;DHT22;6584;48.022;11.810;2023-01-30T14:38:19;2.70;99.90
13035;DHT22;6584;48.022;11.810;2023-01-30T14:46:05;2.70;99.90
13035;DHT22;6584;48.022;11.810;2023-01-30T14:51:25;2.60;99.90
13035;DHT22;6584;48.022;11.810;2023-01-30T14:57:04;2.60;99.90
13035;DHT22;6584;48.022;11.810;2023-01-30T14:59:55;2.60;99.90
13035;DHT22;6584;48.022;11.810;2023-01-30T15:02:33;2.50;99.90
13035;DHT22;6584;48.022;11.810;2023-01-30T15:05:47;2.50;99.90
13035;DHT22;6584;48.022;11.810;2023-01-30T15:08:21;2.50;99.90
13035;DHT22;6584;48.022;11.810;2023-01-30T15:13:51;2.60;99.90
13035;DHT22;6584;48.022;11.810;2023-01-30T15:32:25;2.60;99.90
13035;DHT22;6584;48.022;11.810;2023-01-30T15:35:00;2.60;99.90
13035;DHT22;6584;48.022;11.810;2023-01-30T15:37:30;2.60;99.90
13035;DHT22;6584;48.022;11.810;2023-01-30T15:42:47;2.50;99.90
13035;DHT22;6584;48.022;11.810;2023-01-30T15:45:26;2.50;99.90
13035;DHT22;6584;48.022;11.810;2023-01-30T15:50:52;2.50;99.90
13035;DHT22;6584;48.022;11.810;2023-01-30T15:53:28;2.50;99.90
13035;DHT22;6584;48.022;11.810;2023-01-30T15:55:56;2.40;99.90
13035;DHT22;6584;48.022;11.810;2023-01-30T15:58:23;2.40;99.90
13035;DHT22;6584;48.022;11.810;2023-01-30T16:00:52;2.40;99.90
13035;DHT22;6584;48.022;11.810;2023-01-30T16:03:25;2.50;99.90
13035;DHT22;6584;48.022;11.810;2023-01-30T16:05:53;2.50;99.90
13035;DHT22;6584;48.022;11.810;2023-01-30T16:08:30;2.50;99.90
13035;DHT22;6584;48.022;11.810;2023-01-30T16:10:57;2.40;99.90
13035;DHT22;6584;48.022;11.810;2023-01-30T16:13:25;2.40;99.90
13035;DHT22;6584;48.022;11.810;2023-01-30T16:16:12;2.40;99.90
13035;DHT22;6584;48.022;11.810;2023-01-30T16:18:50;2.40;99.90
13035;DHT22;6584;48.022;11.810;2023-01-30T16:21:27;2.40;99.90
13035;DHT22;6584;48.022;11.810;2023-01-30T16:24:04;2.40;99.90
13035;DHT22;6584;48.022;11.810;2023-01-30T16:26:32;2.40;99.90
13035;DHT22;6584;48.022;11.810;2023-01-30T16:29:04;2.40;99.90
13035;DHT22;6584;48.022;11.810;2023-01-30T16:31:36;2.40;99.90
13035;DHT22;6584;48.022;11.810;2023-01-30T16:34:03;2.30;99.90
13035;DHT22;6584;48.022;11.810;2023-01-30T16:36:39;2.30;99.90
13035;DHT22;6584;48.022;11.810;2023-01-30T16:39:29;2.30;99.90
13035;DHT22;6584;48.022;11.810;2023-01-30T16:41:55;2.20;99.90
13035;DHT22;6584;48.022;11.810;2023-01-30T16:44:29;2.20;99.90
13035;DHT22;6584;48.022;11.810;2023-01-30T16:47:31;2.20;99.90
13035;DHT22;6584;48.022;11.810;2023-01-30T16:49:51;2.10;99.90
13035;DHT22;6584;48.022;11.810;2023-01-30T16:52:37;2.10;99.90
13035;DHT22;6584;48.022;11.810;2023-01-30T16:55:19;2.00;99.90
13035;DHT22;6584;48.022;11.810;2023-01-30T16:58:02;2.00;99.90
13035;DHT22;6584;48.022;11.810;2023-01-30T17:00:36;2.00;99.90
13035;DHT22;6584;48.022;11.810;2023-01-30T17:03:22;2.00;99.90
13035;DHT22;6584;48.022;11.810;2023-01-30T17:05:49;1.90;99.90
13035;DHT22;6584;48.022;11.810;2023-01-30T17:11:02;1.90;99.90
13035;DHT22;6584;48.022;11.810;2023-01-30T17:13:39;2.00;99.90
13035;DHT22;6584;48.022;11.810;2023-01-30T17:18:55;2.00;99.90
13035;DHT22;6584;48.022;11.810;2023-01-30T17:21:24;1.90;99.90
13035;DHT22;6584;48.022;11.810;2023-01-30T17:23:55;1.90;99.90
13035;DHT22;6584;48.022;11.810;2023-01-30T17:26:21;1.90;99.90
13035;DHT22;6584;48.022;11.810;2023-01-30T17:28:47;1.90;99.90
13035;DHT22;6584;48.022;11.810;2023-01-30T17:31:14;1.90;99.90
13035;DHT22;6584;48.022;11.810;2023-01-30T17:33:41;1.90;99.90
13035;DHT22;6584;48.022;11.810;2023-01-30T17:36:17;1.90;99.90
13035;DHT22;6584;48.022;11.810;2023-01-30T17:38:44;1.90;99.90
13035;DHT22;6584;48.022;11.810;2023-01-30T17:41:22;1.90;99.90
13035;DHT22;6584;48.022;11.810;2023-01-30T17:43:48;1.90;99.90
13035;DHT22;6584;48.022;11.810;2023-01-30T17:46:14;1.90;99.90
13035;DHT22;6584;48.022;11.810;2023-01-30T17:48:40;1.90;99.90
13035;DHT22;6584;48.022;11.810;2023-01-30T17:51:05;2.00;99.90
13035;DHT22;6584;48.022;11.810;2023-01-30T17:53:31;2.00;99.90
13035;DHT22;6584;48.022;11.810;2023-01-30T17:55:56;1.90;99.90
13035;DHT22;6584;48.022;11.810;2023-01-30T17:58:22;2.00;99.90
13035;DHT22;6584;48.022;11.810;2023-01-30T18:00:48;2.00;99.90
13035;DHT22;6584;48.022;11.810;2023-01-30T18:03:13;2.00;99.90
13035;DHT22;6584;48.022;11.810;2023-01-30T18:05:40;2.00;99.90
13035;DHT22;6584;48.022;11.810;2023-01-30T18:08:06;2.00;99.90
13035;DHT22;6584;48.022;11.810;2023-01-30T18:10:31;1.90;99.90
13035;DHT22;6584;48.022;11.810;2023-01-30T18:12:57;2.00;99.90
13035;DHT22;6584;48.022;11.810;2023-01-30T18:15:23;2.00;99.90
13035;DHT22;6584;48.022;11.810;2023-01-30T18:17:49;2.00;99.90
13035;DHT22;6584;48.022;11.810;2023-01-30T18:20:17;2.00;99.90
13035;DHT22;6584;48.022;11.810;2023-01-30T18:22:44;1.90;99.90
13035;DHT22;6584;48.022;11.810;2023-01-30T18:25:10;1.90;99.90
13035;DHT22;6584;48.022;11.810;2023-01-30T18:27:39;1.90;99.90
13035;DHT22;6584;48.022;11.810;2023-01-30T18:30:05;1.90;99.90
13035;DHT22;6584;48.022;11.810;2023-01-30T18:32:31;1.90;99.90
13035;DHT22;6584;48.022;11.810;2023-01-30T18:34:56;1.90;99.90
13035;DHT22;6584;48.022;11.810;2023-01-30T18:37:22;1.90;99.90
13035;DHT22;6584;48.022;11.810;2023-01-30T18:39:47;1.80;99.90
13035;DHT22;6584;48.022;11.810;2023-01-30T18:42:13;1.90;99.90